Time;durP1;ratioP1;P1;durP2;ratioP2;P2;SDS_P1;SDS_P2;PMS_P1;PMS_P2;Temp;Humidity;BMP_temperature;BMP_pressure;BME280_temperature;BME280_humidity;BME280_pressure;Samples;Min_cycle;Max_cycle;Signal;HPM_P1;HPM_P2
2022/08/06 00:02:38;;;;;;;3.47;3.17;;;27.70;85.10;;;;;;4953733;28;20236;-92
2022/08/06 00:05:09;;;;;;;3.55;3.35;;;27.60;85.40;;;;;;4954357;28;20209;-93
2022/08/06 00:07:50;;;;;;;4.13;3.80;;;27.50;85.60;;;;;;4954031;28;20239;-93
2022/08/06 00:10:20;;;;;;;4.28;3.50;;;27.40;85.90;;;;;;4954029;28;20316;-91
2022/08/06 00:12:57;;;;;;;4.13;3.45;;;27.40;86.20;;;;;;4954069;28;20297;-92
2022/08/06 00:15:28;;;;;;;2.90;2.70;;;27.30;86.40;;;;;;4954343;28;20459;-91
2022/08/06 00:18:17;;;;;;;3.03;2.78;;;27.20;86.50;;;;;;4953826;28;20213;-94
2022/08/06 00:20:47;;;;;;;3.97;3.65;;;27.20;86.80;;;;;;4953781;28;20233;-93
2022/08/06 00:23:18;;;;;;;4.68;3.05;;;27.20;86.80;;;;;;4953937;28;20213;-93
2022/08/06 00:25:51;;;;;;;2.65;2.55;;;27.10;86.90;;;;;;4954089;28;20213;-92
2022/08/06 00:28:21;;;;;;;3.45;3.08;;;27.10;86.50;;;;;;4953893;28;20212;-92
2022/08/06 00:31:00;;;;;;;8.13;2.88;;;27.00;86.10;;;;;;4958065;28;20229;-92
2022/08/06 00:33:41;;;;;;;3.22;2.92;;;27.10;85.60;;;;;;4965182;28;20244;-93
2022/08/06 00:36:24;;;;;;;3.40;3.10;;;27.00;85.50;;;;;;4965614;28;20229;-91
2022/08/06 00:38:57;;;;;;;2.72;2.53;;;27.00;85.20;;;;;;4974575;28;20205;-93
2022/08/06 00:41:27;;;;;;;2.80;2.60;;;27.00;85.20;;;;;;4977304;28;20221;-93
2022/08/06 00:44:09;;;;;;;3.60;3.28;;;26.90;85.10;;;;;;4957164;28;20283;-93
2022/08/06 00:46:41;;;;;;;2.97;2.75;;;26.90;85.00;;;;;;4953860;29;20201;-92
2022/08/06 00:49:11;;;;;;;3.50;3.13;;;26.90;85.20;;;;;;4952714;28;20228;-92
2022/08/06 00:51:40;;;;;;;2.88;2.60;;;26.90;85.00;;;;;;4953578;28;20259;-92
2022/08/06 00:54:19;;;;;;;3.70;3.00;;;26.90;85.10;;;;;;4953700;28;20201;-93
2022/08/06 00:57:02;;;;;;;7.38;2.90;;;26.90;85.00;;;;;;4957990;28;20227;-92
2022/08/06 00:59:39;;;;;;;3.08;2.88;;;26.80;84.90;;;;;;4953053;28;20274;-92
2022/08/06 01:02:10;;;;;;;2.92;2.72;;;26.90;85.00;;;;;;4953563;28;20216;-93
2022/08/06 01:04:43;;;;;;;2.83;2.63;;;26.80;84.90;;;;;;4953270;28;20209;-92
2022/08/06 01:07:12;;;;;;;3.25;2.97;;;26.80;85.10;;;;;;4953165;28;20205;-92
2022/08/06 01:09:42;;;;;;;3.05;2.85;;;26.80;85.40;;;;;;4952772;28;20201;-92
2022/08/06 01:12:26;;;;;;;3.60;3.30;;;26.70;85.60;;;;;;4953420;28;20205;-93
2022/08/06 01:15:03;;;;;;;9.75;2.72;;;26.70;85.70;;;;;;4952144;28;20219;-91
2022/08/06 01:17:50;;;;;;;3.47;3.17;;;26.70;85.80;;;;;;4952915;28;20279;-91
2022/08/06 01:20:40;;;;;;;3.63;2.72;;;26.70;86.00;;;;;;4952521;28;20233;-92
2022/08/06 01:23:44;;;;;;;3.30;3.00;;;26.70;86.00;;;;;;4952953;29;20217;-92
2022/08/06 01:26:37;;;;;;;3.40;3.10;;;26.70;86.00;;;;;;4953140;28;20224;-92
2022/08/06 01:29:12;;;;;;;2.40;2.22;;;26.70;86.10;;;;;;4952679;28;20232;-92
2022/08/06 01:31:47;;;;;;;3.53;3.22;;;26.70;86.30;;;;;;4952987;28;20229;-92
2022/08/06 01:34:25;;;;;;;2.90;2.70;;;26.70;86.60;;;;;;4952432;28;20209;-91
2022/08/06 01:37:04;;;;;;;3.08;2.63;;;26.60;86.90;;;;;;4952812;29;20248;-93
2022/08/06 01:39:35;;;;;;;3.05;2.85;;;26.60;87.50;;;;;;4952891;28;20212;-93
2022/08/06 01:42:26;;;;;;;2.47;2.28;;;26.50;87.90;;;;;;4952809;28;20248;-94
2022/08/06 01:45:06;;;;;;;4.78;2.80;;;26.40;88.70;;;;;;4952798;28;20235;-92
2022/08/06 01:47:39;;;;;;;2.50;2.33;;;26.30;89.10;;;;;;4953026;28;20201;-92
2022/08/06 01:50:27;;;;;;;3.00;2.70;;;26.30;89.70;;;;;;4952326;28;20229;-93
2022/08/06 01:52:57;;;;;;;2.63;2.50;;;26.10;90.10;;;;;;4952800;28;20205;-93
2022/08/06 01:55:30;;;;;;;4.32;2.45;;;26.00;90.50;;;;;;4952974;28;20205;-92
2022/08/06 01:58:22;;;;;;;6.75;3.25;;;26.00;90.80;;;;;;4952167;28;20231;-91
2022/08/06 02:01:00;;;;;;;6.43;3.03;;;25.80;91.10;;;;;;4952534;28;20221;-92
2022/08/06 02:03:34;;;;;;;3.05;2.30;;;25.70;91.50;;;;;;4952508;28;20209;-92
2022/08/06 02:06:21;;;;;;;3.83;2.92;;;25.60;91.70;;;;;;4952597;28;20209;-93
2022/08/06 02:08:59;;;;;;;4.55;2.72;;;25.60;92.30;;;;;;4952502;28;20209;-92
2022/08/06 02:11:54;;;;;;;6.43;3.22;;;25.50;92.70;;;;;;4952172;28;20229;-90
2022/08/06 02:14:38;;;;;;;2.97;2.78;;;25.40;93.20;;;;;;4952352;28;20209;-93
2022/08/06 02:17:14;;;;;;;3.20;2.92;;;25.30;93.70;;;;;;4952080;28;20225;-92
2022/08/06 02:19:46;;;;;;;2.55;2.38;;;25.20;94.10;;;;;;4951844;28;20235;-92
2022/08/06 02:22:38;;;;;;;2.55;2.35;;;25.10;94.60;;;;;;4952129;28;20217;-92
2022/08/06 02:25:13;;;;;;;3.33;2.90;;;25.00;95.40;;;;;;4952080;28;20209;-91
2022/08/06 02:28:00;;;;;;;2.88;2.60;;;24.90;96.30;;;;;;4951760;28;20269;-91
2022/08/06 02:30:33;;;;;;;3.20;2.90;;;24.70;97.50;;;;;;4951744;28;20232;-92
2022/08/06 02:33:07;;;;;;;3.15;2.92;;;24.60;98.90;;;;;;4952115;28;20220;-91
2022/08/06 02:35:43;;;;;;;2.90;2.70;;;24.50;99.90;;;;;;4952410;28;20204;-93
2022/08/06 02:38:26;;;;;;;2.95;2.75;;;24.30;99.90;;;;;;4952130;28;20248;-92
2022/08/06 02:41:13;;;;;;;2.88;2.63;;;24.10;99.90;;;;;;4952001;28;20225;-92
2022/08/06 02:43:49;;;;;;;4.55;2.45;;;24.00;99.90;;;;;;4951928;28;20233;-92
2022/08/06 02:46:24;;;;;;;12.25;3.10;;;23.80;99.90;;;;;;4951555;28;20209;-93
2022/08/06 02:49:00;;;;;;;2.88;2.67;;;23.80;99.90;;;;;;4951567;28;20269;-92
2022/08/06 02:51:35;;;;;;;9.80;3.10;;;23.70;99.90;;;;;;4952180;28;20228;-93
2022/08/06 02:54:29;;;;;;;2.90;2.70;;;23.50;99.90;;;;;;4952001;28;20213;-92
2022/08/06 02:57:06;;;;;;;3.30;2.78;;;23.50;99.90;;;;;;4952246;28;20215;-93
2022/08/06 02:59:40;;;;;;;3.15;2.85;;;23.50;99.90;;;;;;4951578;28;20215;-92
2022/08/06 03:02:13;;;;;;;3.25;2.95;;;23.50;99.90;;;;;;4951707;28;20236;-93
2022/08/06 03:04:57;;;;;;;2.90;2.63;;;23.50;99.90;;;;;;4951777;28;20266;-90
2022/08/06 03:07:29;;;;;;;3.17;2.95;;;23.40;99.90;;;;;;4951639;28;20217;-92
2022/08/06 03:10:02;;;;;;;3.67;3.10;;;23.40;99.90;;;;;;4951363;28;20308;-92
2022/08/06 03:12:41;;;;;;;3.92;2.67;;;23.30;99.90;;;;;;4951793;28;20288;-93
2022/08/06 03:15:11;;;;;;;3.45;2.88;;;23.30;99.90;;;;;;4951974;28;20284;-93
2022/08/06 03:18:01;;;;;;;3.05;2.78;;;23.30;99.90;;;;;;4951231;28;20221;-92
2022/08/06 03:20:35;;;;;;;4.13;3.03;;;23.30;99.90;;;;;;4951552;28;20242;-93
2022/08/06 03:23:08;;;;;;;3.47;3.03;;;23.20;99.90;;;;;;4951218;28;20229;-93
2022/08/06 03:25:39;;;;;;;3.10;2.90;;;23.20;99.90;;;;;;4951562;28;20236;-93
2022/08/06 03:28:12;;;;;;;2.92;2.72;;;23.10;99.90;;;;;;4951291;28;20280;-92
2022/08/06 03:30:51;;;;;;;2.67;2.47;;;23.00;99.90;;;;;;4951333;29;20229;-93
2022/08/06 03:33:23;;;;;;;3.95;3.50;;;23.00;99.90;;;;;;4951731;29;20248;-93
2022/08/06 03:36:15;;;;;;;3.78;3.47;;;22.90;99.90;;;;;;4950879;28;20205;-93
2022/08/06 03:38:48;;;;;;;2.70;2.53;;;22.80;99.90;;;;;;4953128;28;20288;-93
2022/08/06 03:41:24;;;;;;;6.28;3.20;;;22.80;99.90;;;;;;4954519;28;20286;-92
2022/08/06 03:44:02;;;;;;;6.18;3.78;;;22.80;99.90;;;;;;4954330;28;20213;-92
2022/08/06 03:46:38;;;;;;;3.70;3.42;;;22.70;99.90;;;;;;4954806;28;20270;-93
2022/08/06 03:49:14;;;;;;;3.42;3.13;;;22.70;99.90;;;;;;4953920;28;20299;-92
2022/08/06 03:51:57;;;;;;;3.42;3.20;;;22.60;99.90;;;;;;4954217;28;20308;-92
2022/08/06 03:54:29;;;;;;;3.13;2.92;;;22.50;99.90;;;;;;4954668;29;20236;-92
2022/08/06 03:57:04;;;;;;;3.50;3.25;;;22.50;99.90;;;;;;4954091;28;20209;-92
2022/08/06 03:59:39;;;;;;;3.17;2.97;;;22.60;99.90;;;;;;4953852;28;20237;-93
2022/08/06 04:02:30;;;;;;;2.95;2.75;;;22.60;99.90;;;;;;4954414;28;20217;-92
2022/08/06 04:05:16;;;;;;;3.53;3.22;;;22.60;99.90;;;;;;4954251;28;20267;-92
2022/08/06 04:07:52;;;;;;;3.88;3.58;;;22.60;99.90;;;;;;4954048;28;20215;-93
2022/08/06 04:10:25;;;;;;;3.15;2.95;;;22.70;99.90;;;;;;4953558;28;20221;-93
2022/08/06 04:13:06;;;;;;;6.72;3.33;;;22.70;99.90;;;;;;4953880;28;20216;-92
2022/08/06 04:15:56;;;;;;;3.53;3.22;;;22.70;99.90;;;;;;4954046;28;20217;-92
2022/08/06 04:18:28;;;;;;;3.15;2.95;;;22.80;99.90;;;;;;4953603;28;20225;-92
2022/08/06 04:21:00;;;;;;;3.03;2.83;;;22.80;99.90;;;;;;4953801;28;20233;-92
2022/08/06 04:23:50;;;;;;;3.88;3.55;;;22.90;99.90;;;;;;4955701;28;20213;-94
2022/08/06 04:26:23;;;;;;;3.30;3.00;;;22.90;99.90;;;;;;4968024;28;20248;-93
2022/08/06 04:28:56;;;;;;;2.90;2.70;;;22.90;99.90;;;;;;4969041;28;20227;-93
2022/08/06 04:31:28;;;;;;;3.40;3.10;;;23.00;99.90;;;;;;4973066;28;20213;-93
2022/08/06 04:34:22;;;;;;;2.97;2.78;;;23.00;99.90;;;;;;4977468;28;20232;-94
2022/08/06 04:36:55;;;;;;;2.70;2.50;;;23.10;99.90;;;;;;4962344;28;20267;-93
2022/08/06 04:39:26;;;;;;;3.05;2.85;;;23.20;99.90;;;;;;4953506;28;20280;-94
2022/08/06 04:42:14;;;;;;;2.90;2.70;;;23.20;99.90;;;;;;4953828;28;20220;-93
2022/08/06 04:44:44;;;;;;;4.18;3.78;;;23.20;99.90;;;;;;4953760;28;20232;-92
2022/08/06 04:47:13;;;;;;;4.57;3.17;;;23.20;99.90;;;;;;4953953;28;20308;-93
2022/08/06 04:49:47;;;;;;;4.28;3.25;;;23.20;99.90;;;;;;4953257;28;20209;-93
2022/08/06 04:52:30;;;;;;;3.60;3.30;;;23.10;99.90;;;;;;4953448;28;20206;-93
2022/08/06 04:55:19;;;;;;;3.45;3.25;;;23.20;99.90;;;;;;4953484;28;20212;-92
2022/08/06 04:57:51;;;;;;;4.70;4.30;;;23.20;99.90;;;;;;4953758;28;20208;-94
2022/08/06 05:00:31;;;;;;;3.20;3.00;;;23.20;99.90;;;;;;4952930;28;20237;-93
2022/08/06 05:03:20;;;;;;;3.53;3.33;;;23.20;99.90;;;;;;4953640;28;20208;-93
2022/08/06 05:06:14;;;;;;;3.40;3.13;;;23.20;99.90;;;;;;4953441;28;20209;-93
2022/08/06 05:08:46;;;;;;;3.60;3.40;;;23.20;99.90;;;;;;4953368;28;20231;-93
2022/08/06 05:11:25;;;;;;;3.88;3.58;;;23.20;99.90;;;;;;4953890;28;20229;-92
2022/08/06 05:13:59;;;;;;;3.45;3.15;;;23.30;99.90;;;;;;4953799;28;20212;-93
2022/08/06 05:16:30;;;;;;;3.95;3.65;;;23.30;99.90;;;;;;4954262;28;20304;-95
2022/08/06 05:19:01;;;;;;;3.67;3.38;;;23.30;99.90;;;;;;4952770;28;20221;-93
2022/08/06 05:21:52;;;;;;;3.42;3.13;;;23.30;99.90;;;;;;4952615;28;20240;-95
2022/08/06 05:24:41;;;;;;;3.08;2.88;;;23.40;99.90;;;;;;4953357;28;20212;-93
2022/08/06 05:27:31;;;;;;;3.50;3.28;;;23.50;99.90;;;;;;4953332;28;20216;-93
2022/08/06 05:30:19;;;;;;;3.25;3.05;;;23.40;99.90;;;;;;4955819;28;20240;-93
2022/08/06 05:32:50;;;;;;;3.58;3.33;;;23.50;99.90;;;;;;4952667;28;20224;-94
2022/08/06 05:35:23;;;;;;;3.38;3.08;;;23.50;99.90;;;;;;4953035;28;20212;-93
2022/08/06 05:38:12;;;;;;;4.15;3.75;;;23.40;99.90;;;;;;4952765;28;20209;-94
2022/08/06 05:40:48;;;;;;;3.83;3.58;;;23.40;99.90;;;;;;4952838;28;20247;-94
2022/08/06 05:43:26;;;;;;;3.60;3.30;;;23.50;99.90;;;;;;4952995;28;20212;-95
2022/08/06 05:46:18;;;;;;;3.15;2.95;;;23.50;99.90;;;;;;4952689;28;20223;-94
2022/08/06 05:48:56;;;;;;;2.92;2.72;;;23.50;99.90;;;;;;4952591;28;20197;-95
2022/08/06 05:51:38;;;;;;;3.28;3.05;;;23.60;99.90;;;;;;4952976;28;20248;-95
2022/08/06 05:54:19;;;;;;;4.05;3.65;;;23.60;99.90;;;;;;4952995;28;20278;-94
2022/08/06 05:56:51;;;;;;;3.33;3.13;;;23.80;99.90;;;;;;4952601;28;20296;-95
2022/08/06 05:59:27;;;;;;;3.65;3.35;;;23.80;99.90;;;;;;4952561;28;20221;-93
2022/08/06 06:02:17;;;;;;;4.55;4.07;;;23.90;99.90;;;;;;4952445;28;20213;-95
2022/08/06 06:04:48;;;;;;;3.58;3.35;;;24.00;99.90;;;;;;4952555;28;20259;-95
2022/08/06 06:07:37;;;;;;;4.25;3.88;;;24.00;99.90;;;;;;4952768;28;20236;-92
2022/08/06 06:10:26;;;;;;;3.72;3.42;;;24.10;99.90;;;;;;4952032;28;20224;-94
2022/08/06 06:12:56;;;;;;;2.90;2.70;;;24.10;99.90;;;;;;4952603;29;20216;-94
2022/08/06 06:15:27;;;;;;;3.25;2.92;;;24.20;99.90;;;;;;4952342;28;20209;-95
2022/08/06 06:18:28;;;;;;;3.75;3.45;;;24.30;99.90;;;;;;4952199;28;20295;-95
2022/08/06 06:21:11;;;;;;;4.88;3.95;;;24.20;99.90;;;;;;4951899;28;20293;-94
2022/08/06 06:23:54;;;;;;;3.17;2.97;;;24.30;99.90;;;;;;4952398;29;20208;-95
2022/08/06 06:26:45;;;;;;;3.22;3.03;;;24.40;99.90;;;;;;4952733;28;20212;-93
2022/08/06 06:29:31;;;;;;;3.17;2.97;;;24.40;99.90;;;;;;4951974;28;20288;-94
2022/08/06 06:32:40;;;;;;;3.97;3.67;;;24.30;99.90;;;;;;4951988;28;20244;-94
2022/08/06 06:35:23;;;;;;;3.88;3.58;;;24.40;99.90;;;;;;4952461;28;20213;-94
2022/08/06 06:37:58;;;;;;;3.10;2.90;;;24.50;99.90;;;;;;4952222;28;20221;-94
2022/08/06 06:40:50;;;;;;;3.92;3.63;;;24.60;99.90;;;;;;4951449;28;20235;-94
2022/08/06 06:43:40;;;;;;;7.43;3.90;;;24.60;99.90;;;;;;4951729;28;20223;-93
2022/08/06 06:46:20;;;;;;;4.03;3.60;;;24.50;99.90;;;;;;4952330;28;20205;-93
2022/08/06 06:49:14;;;;;;;3.72;3.45;;;24.20;99.90;;;;;;4951776;28;20205;-93
2022/08/06 06:52:07;;;;;;;4.20;3.67;;;23.90;99.90;;;;;;4952104;28;20312;-92
2022/08/06 06:54:41;;;;;;;4.10;3.70;;;23.60;99.90;;;;;;4951969;29;20278;-92
2022/08/06 06:57:18;;;;;;;4.60;3.58;;;23.50;99.90;;;;;;4951527;28;20209;-92
2022/08/06 06:59:54;;;;;;;2.92;2.70;;;23.50;99.90;;;;;;4951448;28;20236;-92
2022/08/06 07:02:45;;;;;;;3.05;2.63;;;23.40;99.90;;;;;;4951919;28;20227;-94
2022/08/06 07:05:16;;;;;;;2.38;2.28;;;23.30;99.90;;;;;;4951807;28;20240;-92
2022/08/06 07:08:06;;;;;;;3.13;2.90;;;23.20;99.90;;;;;;4951830;29;20209;-92
2022/08/06 07:10:35;;;;;;;1.77;1.67;;;23.10;99.90;;;;;;4951098;28;20312;-93
2022/08/06 07:13:05;;;;;;;2.00;1.90;;;23.10;99.90;;;;;;4953138;28;20287;-93
2022/08/06 07:15:43;;;;;;;2.10;2.00;;;23.10;99.90;;;;;;4956012;28;20282;-94
2022/08/06 07:18:22;;;;;;;2.45;2.28;;;22.90;99.90;;;;;;4955850;28;20211;-94
2022/08/06 07:21:02;;;;;;;2.45;2.25;;;22.90;99.90;;;;;;4957448;28;20225;-92
2022/08/06 07:23:32;;;;;;;1.83;1.70;;;22.90;99.90;;;;;;4962604;28;20217;-92
2022/08/06 07:26:23;;;;;;;1.90;1.80;;;23.00;99.90;;;;;;4955912;28;20209;-92
2022/08/06 07:28:54;;;;;;;2.38;1.80;;;22.90;99.90;;;;;;4956136;28;20292;-92
2022/08/06 07:31:31;;;;;;;2.05;1.95;;;22.90;99.90;;;;;;4956198;28;20225;-92
2022/08/06 07:34:04;;;;;;;2.47;1.67;;;22.80;99.90;;;;;;4955372;28;20220;-93
2022/08/06 07:36:44;;;;;;;2.42;1.80;;;22.80;99.90;;;;;;4955050;28;20213;-92
2022/08/06 07:39:28;;;;;;;1.73;1.60;;;22.80;99.90;;;;;;4955215;28;20209;-93
2022/08/06 07:42:06;;;;;;;1.80;1.67;;;22.80;99.90;;;;;;4954663;28;20232;-93
2022/08/06 07:44:43;;;;;;;1.30;1.30;;;22.80;99.90;;;;;;4954767;28;20216;-94
2022/08/06 07:47:28;;;;;;;1.60;1.50;;;22.80;99.90;;;;;;4954837;28;20205;-93
2022/08/06 07:50:14;;;;;;;1.40;1.40;;;22.70;99.90;;;;;;4954228;28;20218;-93
2022/08/06 07:52:45;;;;;;;1.23;1.23;;;22.60;99.90;;;;;;4954121;28;20286;-94
2022/08/06 07:55:14;;;;;;;1.48;1.38;;;22.50;99.90;;;;;;4954269;28;20244;-94
2022/08/06 07:57:44;;;;;;;1.38;1.27;;;22.50;99.90;;;;;;4954645;28;20209;-93
2022/08/06 08:00:24;;;;;;;1.25;1.15;;;22.40;99.90;;;;;;4953940;28;20233;-91
2022/08/06 08:06:20;;;;;;;1.20;1.20;;;22.30;99.90;;;;;;4954728;28;20225;-92
2022/08/06 08:08:53;;;;;;;1.10;1.10;;;22.30;99.90;;;;;;4953948;28;20216;-93
2022/08/06 08:11:25;;;;;;;1.10;1.10;;;22.20;99.90;;;;;;4954149;28;20229;-92
2022/08/06 08:14:15;;;;;;;1.10;1.05;;;22.20;99.90;;;;;;4954390;28;20296;-92
2022/08/06 08:16:48;;;;;;;1.00;1.00;;;22.20;99.90;;;;;;4958880;28;20296;-91
2022/08/06 08:19:24;;;;;;;1.40;1.00;;;22.20;99.90;;;;;;4965403;28;20304;-92
2022/08/06 08:21:56;;;;;;;0.90;0.90;;;22.10;99.90;;;;;;4967189;28;20291;-92
2022/08/06 08:24:27;;;;;;;0.90;0.90;;;22.10;99.90;;;;;;4975204;28;20192;-92
2022/08/06 08:26:59;;;;;;;1.10;1.10;;;22.00;99.90;;;;;;4977743;28;20193;-94
2022/08/06 08:29:45;;;;;;;1.30;1.20;;;22.10;99.90;;;;;;4956481;28;20240;-93
2022/08/06 08:32:38;;;;;;;1.10;1.10;;;22.00;99.90;;;;;;4953696;28;20209;-94
2022/08/06 08:35:19;;;;;;;1.40;1.30;;;22.00;99.90;;;;;;4954066;28;20243;-94
2022/08/06 08:37:50;;;;;;;1.48;1.23;;;21.80;99.90;;;;;;4954246;28;20220;-92
2022/08/06 08:40:27;;;;;;;2.08;1.88;;;21.90;99.90;;;;;;4954085;28;20259;-92
2022/08/06 08:42:59;;;;;;;0.90;0.90;;;22.00;99.90;;;;;;4953909;28;20217;-92
2022/08/06 08:45:34;;;;;;;1.10;1.10;;;22.10;99.90;;;;;;4954185;28;20208;-92
2022/08/06 08:48:05;;;;;;;1.63;1.25;;;22.20;99.90;;;;;;4953562;28;20212;-92
2022/08/06 08:50:36;;;;;;;1.05;1.05;;;22.40;99.90;;;;;;4953374;28;20256;-92
2022/08/06 08:53:09;;;;;;;1.33;1.23;;;22.60;99.90;;;;;;4953350;28;20305;-93
2022/08/06 08:55:41;;;;;;;1.20;1.00;;;22.80;99.90;;;;;;4954075;28;20209;-92
2022/08/06 08:58:31;;;;;;;0.95;0.95;;;22.90;99.90;;;;;;4953393;28;20209;-93
2022/08/06 09:01:12;;;;;;;1.13;1.13;;;23.00;99.90;;;;;;4953314;28;20240;-93
2022/08/06 09:04:03;;;;;;;1.30;1.20;;;23.10;99.90;;;;;;4953377;28;20205;-92
2022/08/06 09:06:34;;;;;;;1.10;1.10;;;23.10;99.90;;;;;;4953758;28;20213;-92
2022/08/06 09:09:07;;;;;;;2.25;1.50;;;23.10;99.90;;;;;;4953589;28;20210;-92
2022/08/06 09:11:45;;;;;;;1.55;1.45;;;23.20;99.90;;;;;;4953606;28;20225;-93
2022/08/06 09:14:34;;;;;;;1.60;1.50;;;23.10;99.90;;;;;;4953440;28;20208;-93
2022/08/06 09:17:03;;;;;;;1.40;1.30;;;23.10;99.90;;;;;;4953439;28;20209;-92
2022/08/06 09:19:37;;;;;;;3.63;1.08;;;22.90;99.90;;;;;;4953123;28;20209;-93
2022/08/06 09:22:09;;;;;;;0.95;0.95;;;22.80;99.90;;;;;;4953249;28;20233;-92
2022/08/06 09:24:39;;;;;;;1.70;1.60;;;22.60;99.90;;;;;;4953387;28;20293;-93
2022/08/06 09:27:12;;;;;;;1.98;1.60;;;22.50;99.90;;;;;;4953215;28;20205;-92
2022/08/06 09:30:17;;;;;;;0.95;0.95;;;22.40;99.90;;;;;;4952887;28;20240;-93
2022/08/06 09:33:18;;;;;;;1.10;1.10;;;22.30;99.90;;;;;;4953089;28;20304;-92
2022/08/06 09:36:14;;;;;;;1.50;1.40;;;22.20;99.90;;;;;;4952334;28;20205;-93
2022/08/06 09:39:00;;;;;;;1.10;1.10;;;22.20;99.90;;;;;;4953094;28;20288;-94
2022/08/06 09:41:31;;;;;;;2.13;1.60;;;22.30;99.90;;;;;;4952779;28;20229;-92
2022/08/06 09:44:11;;;;;;;0.82;0.82;;;22.30;99.90;;;;;;4953234;28;20217;-93
2022/08/06 09:47:00;;;;;;;1.75;1.42;;;22.20;99.90;;;;;;4952897;28;20303;-93
2022/08/06 09:49:52;;;;;;;17.88;1.35;;;22.20;99.90;;;;;;4953134;28;20209;-93
2022/08/06 09:52:27;;;;;;;1.02;1.02;;;22.20;99.90;;;;;;4952874;28;20205;-92
2022/08/06 09:54:56;;;;;;;0.90;0.90;;;22.10;99.90;;;;;;4952736;28;20205;-93
2022/08/06 09:57:41;;;;;;;0.70;0.70;;;22.10;99.90;;;;;;4952876;28;20235;-92
2022/08/06 10:00:12;;;;;;;0.90;0.90;;;21.90;99.90;;;;;;4952719;28;20225;-92
2022/08/06 10:02:43;;;;;;;0.95;0.95;;;21.80;99.90;;;;;;4952359;28;20249;-92
2022/08/06 10:05:20;;;;;;;1.20;0.95;;;21.70;99.90;;;;;;4952895;28;20204;-92
2022/08/06 10:08:04;;;;;;;0.85;0.70;;;21.70;99.90;;;;;;4952631;28;20217;-92
2022/08/06 10:10:45;;;;;;;0.85;0.85;;;21.50;99.90;;;;;;4952320;28;20316;-92
2022/08/06 10:13:23;;;;;;;1.45;1.08;;;21.40;99.90;;;;;;4952389;28;20292;-93
2022/08/06 10:15:57;;;;;;;1.85;1.35;;;21.40;99.90;;;;;;4952555;28;20213;-92
2022/08/06 10:18:33;;;;;;;1.23;1.13;;;21.40;99.90;;;;;;4952723;28;20293;-92
2022/08/06 10:21:24;;;;;;;0.95;0.95;;;21.50;99.90;;;;;;4951991;28;20233;-92
2022/08/06 10:23:56;;;;;;;0.85;0.85;;;21.60;99.90;;;;;;4952234;28;20278;-93
2022/08/06 10:26:27;;;;;;;1.40;1.30;;;21.80;99.90;;;;;;4952629;28;20232;-92
2022/08/06 10:29:03;;;;;;;1.20;1.05;;;21.90;99.90;;;;;;4952240;28;20237;-92
2022/08/06 10:31:34;;;;;;;0.90;0.90;;;22.00;99.90;;;;;;4952272;28;20228;-93
2022/08/06 10:34:09;;;;;;;1.48;1.38;;;22.00;99.90;;;;;;4952402;28;20220;-92
2022/08/06 10:36:42;;;;;;;2.05;1.35;;;22.00;99.90;;;;;;4952352;28;20258;-93
2022/08/06 10:39:11;;;;;;;1.08;1.08;;;21.90;99.90;;;;;;4952064;28;20255;-93
2022/08/06 10:42:01;;;;;;;1.25;1.25;;;22.00;99.90;;;;;;4951837;28;20329;-92
2022/08/06 10:44:45;;;;;;;1.60;1.50;;;22.00;99.90;;;;;;4952391;28;20270;-93
2022/08/06 10:47:16;;;;;;;1.40;1.35;;;21.80;99.90;;;;;;4954020;28;20233;-92
2022/08/06 10:50:05;;;;;;;1.55;1.45;;;21.80;99.90;;;;;;4954953;28;20233;-93
2022/08/06 10:52:54;;;;;;;1.50;1.40;;;21.90;99.90;;;;;;4955391;28;20205;-94
2022/08/06 10:55:23;;;;;;;1.17;1.15;;;22.10;99.90;;;;;;4955235;28;20243;-93
2022/08/06 10:58:05;;;;;;;1.35;1.30;;;22.30;99.90;;;;;;4956051;28;20215;-94
2022/08/06 11:00:35;;;;;;;2.90;2.25;;;22.50;99.90;;;;;;4955366;28;20274;-92
2022/08/06 11:03:16;;;;;;;1.73;1.63;;;22.70;99.90;;;;;;4954993;28;20268;-94
2022/08/06 11:05:49;;;;;;;2.03;1.90;;;22.70;99.90;;;;;;4954775;28;20212;-94
2022/08/06 11:08:39;;;;;;;2.92;2.15;;;22.60;99.90;;;;;;4955187;29;20224;-94
2022/08/06 11:11:32;;;;;;;1.83;1.73;;;22.40;99.90;;;;;;4955064;28;20279;-94
2022/08/06 11:14:09;;;;;;;2.55;1.77;;;22.20;99.90;;;;;;4955245;28;20213;-94
2022/08/06 11:16:56;;;;;;;1.40;1.30;;;22.30;99.90;;;;;;4955397;28;20240;-92
2022/08/06 11:19:43;;;;;;;1.83;1.73;;;22.50;99.90;;;;;;4955054;28;20213;-93
2022/08/06 11:22:34;;;;;;;2.05;1.95;;;22.50;99.90;;;;;;4954696;28;20229;-93
2022/08/06 11:25:04;;;;;;;1.70;1.60;;;22.70;99.90;;;;;;4954953;28;20204;-92
2022/08/06 11:27:56;;;;;;;3.55;2.17;;;22.90;99.90;;;;;;4954911;28;20209;-93
2022/08/06 11:30:42;;;;;;;1.60;1.50;;;23.10;99.90;;;;;;4954751;28;20225;-93
2022/08/06 11:33:15;;;;;;;1.80;1.70;;;23.00;99.90;;;;;;4954919;28;20225;-93
2022/08/06 11:35:48;;;;;;;1.83;1.73;;;23.10;99.90;;;;;;4954445;28;20201;-93
2022/08/06 11:38:59;;;;;;;1.70;1.55;;;23.00;99.90;;;;;;4954827;28;20300;-93
2022/08/06 11:41:55;;;;;;;1.80;1.70;;;23.20;99.90;;;;;;4954566;28;20229;-92
2022/08/06 11:44:28;;;;;;;1.60;1.50;;;23.40;99.90;;;;;;4954479;28;20270;-93
2022/08/06 11:47:09;;;;;;;2.53;1.85;;;23.60;99.90;;;;;;4954552;28;20286;-94
2022/08/06 11:49:40;;;;;;;2.17;2.08;;;24.40;99.90;;;;;;4954489;28;20205;-92
2022/08/06 11:52:44;;;;;;;1.58;1.42;;;25.20;99.90;;;;;;4954995;28;20197;-93
2022/08/06 11:55:18;;;;;;;1.67;1.58;;;24.90;99.90;;;;;;4954127;28;20201;-94
2022/08/06 11:58:15;;;;;;;1.48;1.38;;;25.00;99.90;;;;;;4953680;28;20209;-94
2022/08/06 12:00:57;;;;;;;1.70;1.60;;;25.00;99.90;;;;;;4954235;28;20233;-93
2022/08/06 12:03:38;;;;;;;4.05;2.33;;;24.90;99.90;;;;;;4953929;28;20252;-92
2022/08/06 12:06:21;;;;;;;1.90;1.80;;;25.30;99.90;;;;;;4964653;28;20235;-92
2022/08/06 12:09:10;;;;;;;1.70;1.60;;;25.90;99.90;;;;;;4970422;28;20213;-94
2022/08/06 12:11:51;;;;;;;2.40;2.20;;;26.10;99.90;;;;;;4971012;28;20237;-94
2022/08/06 12:14:40;;;;;;;2.20;2.00;;;26.10;99.90;;;;;;4977817;28;20190;-93
2022/08/06 12:17:18;;;;;;;1.98;1.88;;;26.10;99.90;;;;;;4968503;28;20216;-94
2022/08/06 12:19:49;;;;;;;1.85;1.70;;;26.00;99.90;;;;;;4953539;28;20221;-94
2022/08/06 12:22:32;;;;;;;3.63;1.92;;;25.80;99.90;;;;;;4953974;28;20235;-92
2022/08/06 12:25:05;;;;;;;1.63;1.52;;;26.10;99.90;;;;;;4954034;28;20231;-93
2022/08/06 12:27:39;;;;;;;10.38;2.00;;;26.10;99.90;;;;;;4954358;28;20293;-93
2022/08/06 12:30:19;;;;;;;1.77;1.50;;;25.90;99.90;;;;;;4953631;28;20229;-92
2022/08/06 12:33:06;;;;;;;2.45;2.15;;;25.70;99.90;;;;;;4954109;28;20217;-93
2022/08/06 12:35:52;;;;;;;2.55;2.35;;;25.80;99.90;;;;;;4953812;28;20211;-93
2022/08/06 12:38:21;;;;;;;1.75;1.65;;;25.80;99.90;;;;;;4953754;28;20213;-94
2022/08/06 12:40:58;;;;;;;2.30;2.00;;;25.80;99.90;;;;;;4953731;28;20232;-93
2022/08/06 12:43:28;;;;;;;1.95;1.85;;;25.40;99.90;;;;;;4953696;28;20249;-93
2022/08/06 12:46:15;;;;;;;7.70;2.05;;;25.20;99.90;;;;;;4953442;28;20206;-93
2022/08/06 12:48:50;;;;;;;1.60;1.50;;;25.20;99.90;;;;;;4953254;28;20209;-93
2022/08/06 12:51:19;;;;;;;1.65;1.60;;;25.20;99.90;;;;;;4953199;28;20312;-94
2022/08/06 12:53:56;;;;;;;2.28;2.15;;;25.20;99.90;;;;;;4953847;28;20266;-93
2022/08/06 12:56:29;;;;;;;2.05;1.95;;;25.20;99.90;;;;;;4953324;28;20224;-94
2022/08/06 12:59:06;;;;;;;1.92;1.52;;;25.30;99.90;;;;;;4953297;28;20299;-93
2022/08/06 13:01:51;;;;;;;1.98;1.88;;;25.20;99.90;;;;;;4953303;29;20282;-92
2022/08/06 13:04:44;;;;;;;2.40;2.20;;;25.00;99.90;;;;;;4953151;28;20201;-92
2022/08/06 13:07:13;;;;;;;2.17;2.08;;;24.80;99.90;;;;;;4953871;28;20297;-93
2022/08/06 13:09:44;;;;;;;2.63;2.42;;;24.70;99.90;;;;;;4953164;28;20226;-92
2022/08/06 13:12:34;;;;;;;2.20;2.10;;;24.70;99.90;;;;;;4953218;28;20205;-93
2022/08/06 13:15:23;;;;;;;2.28;2.10;;;24.80;99.90;;;;;;4953316;28;20201;-93
2022/08/06 13:18:03;;;;;;;2.63;2.42;;;24.80;99.90;;;;;;4953259;28;20213;-94
2022/08/06 13:20:52;;;;;;;2.22;2.08;;;24.60;99.90;;;;;;4952741;28;20229;-94
2022/08/06 13:23:32;;;;;;;2.47;1.98;;;24.60;99.90;;;;;;4953572;28;20221;-93
2022/08/06 13:26:13;;;;;;;2.58;2.38;;;24.60;99.90;;;;;;4952870;28;20284;-93
2022/08/06 13:29:24;;;;;;;2.50;2.30;;;24.50;99.90;;;;;;4953028;28;20213;-92
2022/08/06 13:32:12;;;;;;;3.22;2.35;;;24.50;99.90;;;;;;4976884;28;20209;-93
2022/08/06 13:35:02;;;;;;;2.47;2.30;;;24.50;99.90;;;;;;4953368;28;20271;-94
2022/08/06 13:37:49;;;;;;;2.75;2.50;;;24.40;99.90;;;;;;4952686;28;20212;-93
2022/08/06 13:40:41;;;;;;;2.60;2.40;;;24.30;99.90;;;;;;4952482;28;20237;-93
2022/08/06 13:43:35;;;;;;;2.60;2.40;;;24.30;99.90;;;;;;4952726;28;20225;-95
2022/08/06 13:46:13;;;;;;;3.25;2.50;;;24.20;99.90;;;;;;4952992;28;20258;-93
2022/08/06 13:48:49;;;;;;;2.90;2.70;;;24.10;99.90;;;;;;4952964;28;20225;-94
2022/08/06 13:51:21;;;;;;;3.20;2.90;;;24.10;99.90;;;;;;4952792;28;20232;-95
2022/08/06 13:53:57;;;;;;;2.75;2.55;;;23.90;99.90;;;;;;4952929;28;20268;-92